sensor_id;sensor_type;location;lat;lon;timestamp;temperature;humidity
64937;SHT30;51452;47.698;19.050;2023-04-24T00:01:12;14.93;52.74
64937;SHT30;51452;47.698;19.050;2023-04-24T00:03:38;14.92;52.79
64937;SHT30;51452;47.698;19.050;2023-04-24T00:06:04;14.92;52.75
64937;SHT30;51452;47.698;19.050;2023-04-24T00:08:32;14.88;52.85
64937;SHT30;51452;47.698;19.050;2023-04-24T00:10:57;14.85;53.05
64937;SHT30;51452;47.698;19.050;2023-04-24T00:13:23;14.82;53.48
64937;SHT30;51452;47.698;19.050;2023-04-24T00:15:48;14.84;52.87
64937;SHT30;51452;47.698;19.050;2023-04-24T00:18:13;14.92;53.10
64937;SHT30;51452;47.698;19.050;2023-04-24T00:20:39;14.89;52.76
64937;SHT30;51452;47.698;19.050;2023-04-24T00:23:04;14.92;52.91
64937;SHT30;51452;47.698;19.050;2023-04-24T00:25:30;15.06;52.06
64937;SHT30;51452;47.698;19.050;2023-04-24T00:27:55;15.07;51.98
64937;SHT30;51452;47.698;19.050;2023-04-24T00:30:21;15.20;53.26
64937;SHT30;51452;47.698;19.050;2023-04-24T00:32:46;15.25;53.68
64937;SHT30;51452;47.698;19.050;2023-04-24T00:35:12;15.26;54.33
64937;SHT30;51452;47.698;19.050;2023-04-24T00:37:37;15.30;53.14
64937;SHT30;51452;47.698;19.050;2023-04-24T00:40:03;15.27;50.75
64937;SHT30;51452;47.698;19.050;2023-04-24T00:42:28;15.33;51.73
64937;SHT30;51452;47.698;19.050;2023-04-24T00:44:54;15.36;53.25
64937;SHT30;51452;47.698;19.050;2023-04-24T00:47:19;15.39;50.30
64937;SHT30;51452;47.698;19.050;2023-04-24T00:49:46;15.40;52.67
64937;SHT30;51452;47.698;19.050;2023-04-24T00:52:12;15.46;53.07
64937;SHT30;51452;47.698;19.050;2023-04-24T00:54:43;15.46;53.68
64937;SHT30;51452;47.698;19.050;2023-04-24T00:57:09;15.44;54.67
64937;SHT30;51452;47.698;19.050;2023-04-24T00:59:35;15.50;52.98
64937;SHT30;51452;47.698;19.050;2023-04-24T01:02:01;15.46;54.97
64937;SHT30;51452;47.698;19.050;2023-04-24T01:04:27;15.46;53.97
64937;SHT30;51452;47.698;19.050;2023-04-24T01:06:54;15.47;54.38
64937;SHT30;51452;47.698;19.050;2023-04-24T01:09:22;15.44;53.21
64937;SHT30;51452;47.698;19.050;2023-04-24T01:11:48;15.42;52.31
64937;SHT30;51452;47.698;19.050;2023-04-24T01:14:14;15.40;52.00
64937;SHT30;51452;47.698;19.050;2023-04-24T01:16:40;15.30;52.37
64937;SHT30;51452;47.698;19.050;2023-04-24T01:19:06;15.42;50.46
64937;SHT30;51452;47.698;19.050;2023-04-24T01:21:34;15.42;51.75
64937;SHT30;51452;47.698;19.050;2023-04-24T01:24:02;15.44;51.72
64937;SHT30;51452;47.698;19.050;2023-04-24T01:26:27;15.35;51.89
64937;SHT30;51452;47.698;19.050;2023-04-24T01:28:53;15.30;52.18
64937;SHT30;51452;47.698;19.050;2023-04-24T01:31:18;15.27;52.62
64937;SHT30;51452;47.698;19.050;2023-04-24T01:33:44;15.23;51.42
64937;SHT30;51452;47.698;19.050;2023-04-24T01:36:11;15.25;51.74
64937;SHT30;51452;47.698;19.050;2023-04-24T01:38:37;15.26;52.44
64937;SHT30;51452;47.698;19.050;2023-04-24T01:41:02;15.22;52.42
64937;SHT30;51452;47.698;19.050;2023-04-24T01:43:28;15.20;51.30
64937;SHT30;51452;47.698;19.050;2023-04-24T01:45:54;15.19;51.58
64937;SHT30;51452;47.698;19.050;2023-04-24T01:48:19;15.15;52.63
64937;SHT30;51452;47.698;19.050;2023-04-24T01:50:45;15.15;52.60
64937;SHT30;51452;47.698;19.050;2023-04-24T01:53:11;15.16;52.65
64937;SHT30;51452;47.698;19.050;2023-04-24T01:55:36;15.13;53.34
64937;SHT30;51452;47.698;19.050;2023-04-24T01:58:02;15.12;53.04
64937;SHT30;51452;47.698;19.050;2023-04-24T02:00:27;15.16;52.92
64937;SHT30;51452;47.698;19.050;2023-04-24T02:02:52;15.20;52.92
64937;SHT30;51452;47.698;19.050;2023-04-24T02:05:18;15.18;51.75
64937;SHT30;51452;47.698;19.050;2023-04-24T02:07:43;15.20;51.67
64937;SHT30;51452;47.698;19.050;2023-04-24T02:10:09;15.20;52.56
64937;SHT30;51452;47.698;19.050;2023-04-24T02:12:35;15.22;52.56
64937;SHT30;51452;47.698;19.050;2023-04-24T02:15:00;15.22;52.94
64937;SHT30;51452;47.698;19.050;2023-04-24T02:17:25;15.19;53.60
64937;SHT30;51452;47.698;19.050;2023-04-24T02:19:51;15.18;54.05
64937;SHT30;51452;47.698;19.050;2023-04-24T02:22:16;15.06;52.68
64937;SHT30;51452;47.698;19.050;2023-04-24T02:24:42;15.05;52.22
64937;SHT30;51452;47.698;19.050;2023-04-24T02:27:07;15.09;53.21
64937;SHT30;51452;47.698;19.050;2023-04-24T02:29:33;15.12;54.65
64937;SHT30;51452;47.698;19.050;2023-04-24T02:31:58;15.06;57.60
64937;SHT30;51452;47.698;19.050;2023-04-24T02:34:24;15.02;55.11
64937;SHT30;51452;47.698;19.050;2023-04-24T02:36:49;14.99;58.11
64937;SHT30;51452;47.698;19.050;2023-04-24T02:39:15;14.93;60.45
64937;SHT30;51452;47.698;19.050;2023-04-24T02:41:42;14.82;57.86
64937;SHT30;51452;47.698;19.050;2023-04-24T02:44:07;14.84;57.64
64937;SHT30;51452;47.698;19.050;2023-04-24T02:46:33;14.82;59.46
64937;SHT30;51452;47.698;19.050;2023-04-24T02:48:58;14.76;60.29
64937;SHT30;51452;47.698;19.050;2023-04-24T02:51:24;14.67;62.21
64937;SHT30;51452;47.698;19.050;2023-04-24T02:53:50;14.65;58.01
64937;SHT30;51452;47.698;19.050;2023-04-24T02:56:15;14.57;59.95
64937;SHT30;51452;47.698;19.050;2023-04-24T02:58:40;14.55;60.70
64937;SHT30;51452;47.698;19.050;2023-04-24T03:01:07;14.51;58.48
64937;SHT30;51452;47.698;19.050;2023-04-24T03:03:32;14.48;61.71
64937;SHT30;51452;47.698;19.050;2023-04-24T03:05:58;14.51;61.73
64937;SHT30;51452;47.698;19.050;2023-04-24T03:08:24;14.51;61.35
64937;SHT30;51452;47.698;19.050;2023-04-24T03:10:49;14.55;59.41
64937;SHT30;51452;47.698;19.050;2023-04-24T03:13:16;14.51;61.54
64937;SHT30;51452;47.698;19.050;2023-04-24T03:15:41;14.44;63.83
64937;SHT30;51452;47.698;19.050;2023-04-24T03:18:07;14.44;63.60
64937;SHT30;51452;47.698;19.050;2023-04-24T03:20:32;14.42;64.59
64937;SHT30;51452;47.698;19.050;2023-04-24T03:22:58;14.47;63.82
64937;SHT30;51452;47.698;19.050;2023-04-24T03:25:23;14.40;64.89
64937;SHT30;51452;47.698;19.050;2023-04-24T03:27:48;14.45;64.79
64937;SHT30;51452;47.698;19.050;2023-04-24T03:30:14;14.48;64.75
64937;SHT30;51452;47.698;19.050;2023-04-24T03:32:39;14.42;64.49
64937;SHT30;51452;47.698;19.050;2023-04-24T03:35:06;14.37;63.62
64937;SHT30;51452;47.698;19.050;2023-04-24T03:37:32;14.34;63.28
64937;SHT30;51452;47.698;19.050;2023-04-24T03:39:58;14.40;62.43
64937;SHT30;51452;47.698;19.050;2023-04-24T03:42:23;14.37;63.02
64937;SHT30;51452;47.698;19.050;2023-04-24T03:44:48;14.40;62.88
64937;SHT30;51452;47.698;19.050;2023-04-24T03:47:14;14.41;64.34
64937;SHT30;51452;47.698;19.050;2023-04-24T03:49:39;14.34;64.32
64937;SHT30;51452;47.698;19.050;2023-04-24T03:52:04;14.35;64.93
64937;SHT30;51452;47.698;19.050;2023-04-24T03:54:30;14.33;60.47
64937;SHT30;51452;47.698;19.050;2023-04-24T03:56:55;14.31;64.33
64937;SHT30;51452;47.698;19.050;2023-04-24T03:59:20;14.35;64.22
64937;SHT30;51452;47.698;19.050;2023-04-24T04:01:46;14.35;63.67
64937;SHT30;51452;47.698;19.050;2023-04-24T04:04:11;14.34;64.50
64937;SHT30;51452;47.698;19.050;2023-04-24T04:06:37;14.35;65.59
64937;SHT30;51452;47.698;19.050;2023-04-24T04:09:03;14.27;65.18
64937;SHT30;51452;47.698;19.050;2023-04-24T04:11:28;14.31;64.49
64937;SHT30;51452;47.698;19.050;2023-04-24T04:13:54;14.38;65.32
64937;SHT30;51452;47.698;19.050;2023-04-24T04:16:19;14.34;65.76
64937;SHT30;51452;47.698;19.050;2023-04-24T04:18:45;14.35;66.20
64937;SHT30;51452;47.698;19.050;2023-04-24T04:21:11;14.38;66.20
64937;SHT30;51452;47.698;19.050;2023-04-24T04:23:36;14.38;66.00
64937;SHT30;51452;47.698;19.050;2023-04-24T04:26:02;14.44;63.90
64937;SHT30;51452;47.698;19.050;2023-04-24T04:28:29;14.44;64.54
64937;SHT30;51452;47.698;19.050;2023-04-24T04:30:56;14.45;64.68
64937;SHT30;51452;47.698;19.050;2023-04-24T04:33:23;14.48;65.64
64937;SHT30;51452;47.698;19.050;2023-04-24T04:35:48;14.51;64.68
64937;SHT30;51452;47.698;19.050;2023-04-24T04:38:15;14.54;63.57
64937;SHT30;51452;47.698;19.050;2023-04-24T04:40:42;14.57;65.20
64937;SHT30;51452;47.698;19.050;2023-04-24T04:43:07;14.65;62.14
64937;SHT30;51452;47.698;19.050;2023-04-24T04:45:33;14.67;61.02
64937;SHT30;51452;47.698;19.050;2023-04-24T04:47:59;14.65;59.98
64937;SHT30;51452;47.698;19.050;2023-04-24T04:50:28;14.67;60.33
64937;SHT30;51452;47.698;19.050;2023-04-24T04:52:54;14.76;58.34
64937;SHT30;51452;47.698;19.050;2023-04-24T04:55:19;14.81;60.88
64937;SHT30;51452;47.698;19.050;2023-04-24T04:57:45;14.79;61.76
64937;SHT30;51452;47.698;19.050;2023-04-24T05:00:12;14.78;61.53
64937;SHT30;51452;47.698;19.050;2023-04-24T05:02:38;14.86;63.70
64937;SHT30;51452;47.698;19.050;2023-04-24T05:05:04;14.78;62.18
64937;SHT30;51452;47.698;19.050;2023-04-24T05:07:31;14.76;64.09
64937;SHT30;51452;47.698;19.050;2023-04-24T05:09:56;14.91;62.16
64937;SHT30;51452;47.698;19.050;2023-04-24T05:12:22;14.86;63.15
64937;SHT30;51452;47.698;19.050;2023-04-24T05:14:47;14.98;62.48
64937;SHT30;51452;47.698;19.050;2023-04-24T05:17:13;15.06;62.08
64937;SHT30;51452;47.698;19.050;2023-04-24T05:19:38;15.05;59.72
64937;SHT30;51452;47.698;19.050;2023-04-24T05:22:04;15.13;59.32
64937;SHT30;51452;47.698;19.050;2023-04-24T05:24:32;15.29;59.14
64937;SHT30;51452;47.698;19.050;2023-04-24T05:26:58;15.33;57.90
64937;SHT30;51452;47.698;19.050;2023-04-24T05:29:23;15.49;57.70
64937;SHT30;51452;47.698;19.050;2023-04-24T05:31:49;15.47;56.49
64937;SHT30;51452;47.698;19.050;2023-04-24T05:34:15;15.57;57.11
64937;SHT30;51452;47.698;19.050;2023-04-24T05:36:41;15.64;57.62
64937;SHT30;51452;47.698;19.050;2023-04-24T05:39:08;15.68;56.50
64937;SHT30;51452;47.698;19.050;2023-04-24T05:41:33;15.74;56.66
64937;SHT30;51452;47.698;19.050;2023-04-24T05:43:59;15.81;54.43
64937;SHT30;51452;47.698;19.050;2023-04-24T05:46:24;15.85;55.80
64937;SHT30;51452;47.698;19.050;2023-04-24T05:48:50;15.73;55.95
64937;SHT30;51452;47.698;19.050;2023-04-24T05:51:15;15.81;55.91
64937;SHT30;51452;47.698;19.050;2023-04-24T05:53:40;15.75;56.29
64937;SHT30;51452;47.698;19.050;2023-04-24T05:56:06;15.75;57.12
64937;SHT30;51452;47.698;19.050;2023-04-24T05:58:31;15.77;56.12
64937;SHT30;51452;47.698;19.050;2023-04-24T06:00:56;15.73;57.75
64937;SHT30;51452;47.698;19.050;2023-04-24T06:03:24;15.78;56.73
64937;SHT30;51452;47.698;19.050;2023-04-24T06:05:50;15.81;55.92
64937;SHT30;51452;47.698;19.050;2023-04-24T06:08:16;15.88;57.76
64937;SHT30;51452;47.698;19.050;2023-04-24T06:10:41;15.84;57.66
64937;SHT30;51452;47.698;19.050;2023-04-24T06:13:07;15.88;57.80
64937;SHT30;51452;47.698;19.050;2023-04-24T06:15:33;15.94;56.98
64937;SHT30;51452;47.698;19.050;2023-04-24T06:17:58;15.94;56.15
64937;SHT30;51452;47.698;19.050;2023-04-24T06:20:24;15.95;56.64
64937;SHT30;51452;47.698;19.050;2023-04-24T06:22:49;15.95;56.24
64937;SHT30;51452;47.698;19.050;2023-04-24T06:25:15;16.04;56.80
64937;SHT30;51452;47.698;19.050;2023-04-24T06:27:40;16.04;56.58
64937;SHT30;51452;47.698;19.050;2023-04-24T06:30:06;16.01;55.50
64937;SHT30;51452;47.698;19.050;2023-04-24T06:32:32;16.05;56.60
64937;SHT30;51452;47.698;19.050;2023-04-24T06:34:57;15.95;57.87
64937;SHT30;51452;47.698;19.050;2023-04-24T06:37:23;16.05;59.39
64937;SHT30;51452;47.698;19.050;2023-04-24T06:39:48;16.02;59.68
64937;SHT30;51452;47.698;19.050;2023-04-24T06:42:13;16.08;59.30
64937;SHT30;51452;47.698;19.050;2023-04-24T06:44:39;16.16;59.83
64937;SHT30;51452;47.698;19.050;2023-04-24T06:47:08;16.18;58.54
64937;SHT30;51452;47.698;19.050;2023-04-24T06:49:35;16.14;58.76
64937;SHT30;51452;47.698;19.050;2023-04-24T06:52:01;16.25;58.31
64937;SHT30;51452;47.698;19.050;2023-04-24T06:54:26;16.29;58.58
64937;SHT30;51452;47.698;19.050;2023-04-24T06:56:52;16.32;57.54
64937;SHT30;51452;47.698;19.050;2023-04-24T06:59:17;16.36;58.03
64937;SHT30;51452;47.698;19.050;2023-04-24T07:01:43;16.39;57.60
64937;SHT30;51452;47.698;19.050;2023-04-24T07:04:08;16.39;58.55
64937;SHT30;51452;47.698;19.050;2023-04-24T07:06:34;16.44;57.97
64937;SHT30;51452;47.698;19.050;2023-04-24T07:09:01;16.42;58.46
64937;SHT30;51452;47.698;19.050;2023-04-24T07:11:26;16.38;57.73
64937;SHT30;51452;47.698;19.050;2023-04-24T07:13:55;16.33;58.00
64937;SHT30;51452;47.698;19.050;2023-04-24T07:16:20;16.30;59.12
64937;SHT30;51452;47.698;19.050;2023-04-24T07:18:46;16.28;58.96
64937;SHT30;51452;47.698;19.050;2023-04-24T07:21:11;16.26;58.66
64937;SHT30;51452;47.698;19.050;2023-04-24T07:23:37;16.12;58.79
64937;SHT30;51452;47.698;19.050;2023-04-24T07:26:02;16.19;59.34
64937;SHT30;51452;47.698;19.050;2023-04-24T07:28:28;16.19;59.26
64937;SHT30;51452;47.698;19.050;2023-04-24T07:30:59;16.36;59.05
64937;SHT30;51452;47.698;19.050;2023-04-24T07:33:27;16.41;59.22
64937;SHT30;51452;47.698;19.050;2023-04-24T07:35:53;16.46;58.78
64937;SHT30;51452;47.698;19.050;2023-04-24T07:38:18;16.52;58.67
64937;SHT30;51452;47.698;19.050;2023-04-24T07:40:48;16.59;58.73
64937;SHT30;51452;47.698;19.050;2023-04-24T07:43:13;16.56;58.62
64937;SHT30;51452;47.698;19.050;2023-04-24T07:45:39;16.62;58.63
64937;SHT30;51452;47.698;19.050;2023-04-24T07:48:05;16.67;58.57
64937;SHT30;51452;47.698;19.050;2023-04-24T07:50:31;16.81;58.70
64937;SHT30;51452;47.698;19.050;2023-04-24T07:52:56;16.88;58.71
64937;SHT30;51452;47.698;19.050;2023-04-24T07:55:23;16.94;59.59
64937;SHT30;51452;47.698;19.050;2023-04-24T07:57:48;17.06;57.77
64937;SHT30;51452;47.698;19.050;2023-04-24T08:00:14;17.11;59.14
64937;SHT30;51452;47.698;19.050;2023-04-24T08:02:39;17.13;59.03
64937;SHT30;51452;47.698;19.050;2023-04-24T08:05:05;17.21;58.83
64937;SHT30;51452;47.698;19.050;2023-04-24T08:07:31;17.28;58.53
64937;SHT30;51452;47.698;19.050;2023-04-24T08:09:56;17.28;58.23
64937;SHT30;51452;47.698;19.050;2023-04-24T08:12:22;17.28;58.46
64937;SHT30;51452;47.698;19.050;2023-04-24T08:14:47;17.35;58.92
64937;SHT30;51452;47.698;19.050;2023-04-24T08:17:13;17.25;58.82
64937;SHT30;51452;47.698;19.050;2023-04-24T08:19:40;17.35;58.06
64937;SHT30;51452;47.698;19.050;2023-04-24T08:22:12;17.41;57.86
64937;SHT30;51452;47.698;19.050;2023-04-24T08:24:38;17.47;59.09
64937;SHT30;51452;47.698;19.050;2023-04-24T08:27:03;17.38;58.18
64937;SHT30;51452;47.698;19.050;2023-04-24T08:29:29;17.51;59.45
64937;SHT30;51452;47.698;19.050;2023-04-24T08:31:54;17.49;58.96
64937;SHT30;51452;47.698;19.050;2023-04-24T08:34:21;17.35;59.54
64937;SHT30;51452;47.698;19.050;2023-04-24T08:36:46;17.41;58.99
64937;SHT30;51452;47.698;19.050;2023-04-24T08:39:11;17.44;58.88
64937;SHT30;51452;47.698;19.050;2023-04-24T08:41:37;17.39;59.84
64937;SHT30;51452;47.698;19.050;2023-04-24T08:44:03;17.49;59.56
64937;SHT30;51452;47.698;19.050;2023-04-24T08:46:30;17.49;60.21
64937;SHT30;51452;47.698;19.050;2023-04-24T08:48:56;17.72;59.52
64937;SHT30;51452;47.698;19.050;2023-04-24T08:51:22;17.71;60.22
64937;SHT30;51452;47.698;19.050;2023-04-24T08:53:49;17.86;58.82
64937;SHT30;51452;47.698;19.050;2023-04-24T08:56:16;17.95;59.53
64937;SHT30;51452;47.698;19.050;2023-04-24T08:58:43;18.25;57.45
64937;SHT30;51452;47.698;19.050;2023-04-24T09:01:08;18.38;59.23
64937;SHT30;51452;47.698;19.050;2023-04-24T09:03:34;18.51;58.01
64937;SHT30;51452;47.698;19.050;2023-04-24T09:06:00;18.56;57.47
64937;SHT30;51452;47.698;19.050;2023-04-24T09:08:28;18.68;57.76
64937;SHT30;51452;47.698;19.050;2023-04-24T09:10:54;18.75;58.30
64937;SHT30;51452;47.698;19.050;2023-04-24T09:13:20;18.89;58.50
64937;SHT30;51452;47.698;19.050;2023-04-24T09:15:45;18.79;57.94
64937;SHT30;51452;47.698;19.050;2023-04-24T09:18:11;18.85;58.03
64937;SHT30;51452;47.698;19.050;2023-04-24T09:20:56;18.96;56.83
64937;SHT30;51452;47.698;19.050;2023-04-24T09:23:22;18.84;55.34
64937;SHT30;51452;47.698;19.050;2023-04-24T09:25:54;18.81;57.08
64937;SHT30;51452;47.698;19.050;2023-04-24T09:28:25;18.69;56.58
64937;SHT30;51452;47.698;19.050;2023-04-24T09:31:05;18.83;57.62
64937;SHT30;51452;47.698;19.050;2023-04-24T09:33:31;18.84;57.65
64937;SHT30;51452;47.698;19.050;2023-04-24T09:35:56;18.95;58.24
64937;SHT30;51452;47.698;19.050;2023-04-24T09:38:43;18.83;58.86
64937;SHT30;51452;47.698;19.050;2023-04-24T09:41:13;18.87;57.01
64937;SHT30;51452;47.698;19.050;2023-04-24T09:43:38;18.94;58.23
64937;SHT30;51452;47.698;19.050;2023-04-24T09:46:06;19.04;57.35
64937;SHT30;51452;47.698;19.050;2023-04-24T09:48:38;19.05;56.96
64937;SHT30;51452;47.698;19.050;2023-04-24T09:51:05;18.84;57.85
64937;SHT30;51452;47.698;19.050;2023-04-24T09:53:36;19.01;58.42
64937;SHT30;51452;47.698;19.050;2023-04-24T09:56:03;19.18;58.82
64937;SHT30;51452;47.698;19.050;2023-04-24T09:58:31;19.29;58.16
64937;SHT30;51452;47.698;19.050;2023-04-24T10:00:57;19.37;58.58
64937;SHT30;51452;47.698;19.050;2023-04-24T10:03:30;19.33;58.15
64937;SHT30;51452;47.698;19.050;2023-04-24T10:06:03;19.06;54.62
64937;SHT30;51452;47.698;19.050;2023-04-24T10:08:35;19.16;56.37
64937;SHT30;51452;47.698;19.050;2023-04-24T10:11:01;19.27;56.60
64937;SHT30;51452;47.698;19.050;2023-04-24T10:13:27;19.37;56.82
64937;SHT30;51452;47.698;19.050;2023-04-24T10:15:53;19.22;54.43
64937;SHT30;51452;47.698;19.050;2023-04-24T10:18:20;19.29;55.11
64937;SHT30;51452;47.698;19.050;2023-04-24T10:20:46;19.36;52.55
64937;SHT30;51452;47.698;19.050;2023-04-24T10:23:12;19.39;53.71
64937;SHT30;51452;47.698;19.050;2023-04-24T10:25:38;19.32;52.46
64937;SHT30;51452;47.698;19.050;2023-04-24T10:28:04;19.46;52.03
64937;SHT30;51452;47.698;19.050;2023-04-24T10:30:32;19.52;52.44
64937;SHT30;51452;47.698;19.050;2023-04-24T10:33:03;19.56;53.23
64937;SHT30;51452;47.698;19.050;2023-04-24T10:35:36;19.47;53.13
64937;SHT30;51452;47.698;19.050;2023-04-24T10:38:05;19.63;52.53
64937;SHT30;51452;47.698;19.050;2023-04-24T10:40:34;19.42;53.16
64937;SHT30;51452;47.698;19.050;2023-04-24T10:43:03;19.32;53.13
64937;SHT30;51452;47.698;19.050;2023-04-24T10:45:31;19.16;54.54
64937;SHT30;51452;47.698;19.050;2023-04-24T10:47:58;19.11;55.54
64937;SHT30;51452;47.698;19.050;2023-04-24T10:50:26;19.04;55.90
64937;SHT30;51452;47.698;19.050;2023-04-24T10:52:52;18.96;57.20
64937;SHT30;51452;47.698;19.050;2023-04-24T10:55:42;19.02;55.83
64937;SHT30;51452;47.698;19.050;2023-04-24T10:58:08;18.95;55.60
64937;SHT30;51452;47.698;19.050;2023-04-24T11:00:37;19.06;56.24
64937;SHT30;51452;47.698;19.050;2023-04-24T11:03:23;19.15;56.45
64937;SHT30;51452;47.698;19.050;2023-04-24T11:06:08;18.89;56.60
64937;SHT30;51452;47.698;19.050;2023-04-24T11:08:39;18.71;56.82
64937;SHT30;51452;47.698;19.050;2023-04-24T11:11:15;18.54;57.69
64937;SHT30;51452;47.698;19.050;2023-04-24T11:16:35;18.30;57.48
64937;SHT30;51452;47.698;19.050;2023-04-24T11:19:09;18.16;58.28
64937;SHT30;51452;47.698;19.050;2023-04-24T11:24:38;18.06;59.21
64937;SHT30;51452;47.698;19.050;2023-04-24T11:27:06;18.13;61.44
64937;SHT30;51452;47.698;19.050;2023-04-24T11:34:45;17.82;62.66
64937;SHT30;51452;47.698;19.050;2023-04-24T11:37:12;17.75;63.13
64937;SHT30;51452;47.698;19.050;2023-04-24T11:39:37;17.75;63.32
64937;SHT30;51452;47.698;19.050;2023-04-24T11:42:03;17.78;63.10
64937;SHT30;51452;47.698;19.050;2023-04-24T11:44:31;17.82;62.78
64937;SHT30;51452;47.698;19.050;2023-04-24T11:46:57;17.92;62.60
64937;SHT30;51452;47.698;19.050;2023-04-24T11:49:22;18.05;63.37
64937;SHT30;51452;47.698;19.050;2023-04-24T11:51:47;18.12;62.24
64937;SHT30;51452;47.698;19.050;2023-04-24T11:54:13;18.20;61.79
64937;SHT30;51452;47.698;19.050;2023-04-24T11:56:38;18.26;62.47
64937;SHT30;51452;47.698;19.050;2023-04-24T11:59:04;18.26;61.92
64937;SHT30;51452;47.698;19.050;2023-04-24T12:01:29;18.33;60.45
64937;SHT30;51452;47.698;19.050;2023-04-24T12:03:59;18.25;59.56
64937;SHT30;51452;47.698;19.050;2023-04-24T12:06:25;18.26;59.50
64937;SHT30;51452;47.698;19.050;2023-04-24T12:08:52;18.18;60.43
64937;SHT30;51452;47.698;19.050;2023-04-24T12:11:17;18.22;61.42
64937;SHT30;51452;47.698;19.050;2023-04-24T12:13:43;18.17;63.19
64937;SHT30;51452;47.698;19.050;2023-04-24T12:16:09;18.17;63.37
64937;SHT30;51452;47.698;19.050;2023-04-24T12:18:34;18.20;63.09
64937;SHT30;51452;47.698;19.050;2023-04-24T12:21:19;18.22;63.51
64937;SHT30;51452;47.698;19.050;2023-04-24T12:23:45;18.27;63.46
64937;SHT30;51452;47.698;19.050;2023-04-24T12:26:15;18.32;65.04
64937;SHT30;51452;47.698;19.050;2023-04-24T12:28:41;18.34;64.73
64937;SHT30;51452;47.698;19.050;2023-04-24T12:31:06;18.38;65.00
64937;SHT30;51452;47.698;19.050;2023-04-24T12:33:33;18.41;63.15
64937;SHT30;51452;47.698;19.050;2023-04-24T12:35:59;18.38;64.98
64937;SHT30;51452;47.698;19.050;2023-04-24T12:38:26;18.44;65.74
64937;SHT30;51452;47.698;19.050;2023-04-24T12:41:06;18.38;67.27
64937;SHT30;51452;47.698;19.050;2023-04-24T12:43:31;18.46;68.05
64937;SHT30;51452;47.698;19.050;2023-04-24T12:45:57;18.46;68.60
64937;SHT30;51452;47.698;19.050;2023-04-24T12:48:22;18.47;67.55
64937;SHT30;51452;47.698;19.050;2023-04-24T12:50:48;18.41;64.93
64937;SHT30;51452;47.698;19.050;2023-04-24T12:53:14;18.38;65.57
64937;SHT30;51452;47.698;19.050;2023-04-24T12:55:40;18.46;63.71
64937;SHT30;51452;47.698;19.050;2023-04-24T12:58:06;18.44;63.85
64937;SHT30;51452;47.698;19.050;2023-04-24T13:00:32;18.50;61.30
64937;SHT30;51452;47.698;19.050;2023-04-24T13:02:57;18.60;60.65
64937;SHT30;51452;47.698;19.050;2023-04-24T13:05:23;18.60;60.54
64937;SHT30;51452;47.698;19.050;2023-04-24T13:07:48;18.60;61.87
64937;SHT30;51452;47.698;19.050;2023-04-24T13:10:14;18.74;59.13
64937;SHT30;51452;47.698;19.050;2023-04-24T13:12:40;18.79;59.99
64937;SHT30;51452;47.698;19.050;2023-04-24T13:15:06;18.88;60.08
64937;SHT30;51452;47.698;19.050;2023-04-24T13:17:32;18.88;61.68
64937;SHT30;51452;47.698;19.050;2023-04-24T13:19:58;18.99;60.92
64937;SHT30;51452;47.698;19.050;2023-04-24T13:22:24;18.89;59.84
64937;SHT30;51452;47.698;19.050;2023-04-24T13:24:50;18.99;59.69
64937;SHT30;51452;47.698;19.050;2023-04-24T13:27:16;19.11;60.74
64937;SHT30;51452;47.698;19.050;2023-04-24T13:29:41;19.22;59.28
64937;SHT30;51452;47.698;19.050;2023-04-24T13:32:07;19.30;59.25
64937;SHT30;51452;47.698;19.050;2023-04-24T13:34:33;19.39;57.59
64937;SHT30;51452;47.698;19.050;2023-04-24T13:37:00;19.32;58.75
64937;SHT30;51452;47.698;19.050;2023-04-24T13:39:26;19.27;59.24
64937;SHT30;51452;47.698;19.050;2023-04-24T13:41:52;19.23;60.49
64937;SHT30;51452;47.698;19.050;2023-04-24T13:44:19;19.12;59.76
64937;SHT30;51452;47.698;19.050;2023-04-24T13:46:47;18.91;60.43
64937;SHT30;51452;47.698;19.050;2023-04-24T13:49:13;18.54;57.83
64937;SHT30;51452;47.698;19.050;2023-04-24T13:51:40;18.48;58.20
64937;SHT30;51452;47.698;19.050;2023-04-24T13:54:05;18.37;58.29
64937;SHT30;51452;47.698;19.050;2023-04-24T13:56:31;18.34;58.19
64937;SHT30;51452;47.698;19.050;2023-04-24T13:58:56;18.33;60.52
64937;SHT30;51452;47.698;19.050;2023-04-24T14:01:22;18.29;59.77
64937;SHT30;51452;47.698;19.050;2023-04-24T14:03:54;18.32;59.76
64937;SHT30;51452;47.698;19.050;2023-04-24T14:06:21;18.37;58.39
64937;SHT30;51452;47.698;19.050;2023-04-24T14:08:47;18.30;59.54
64937;SHT30;51452;47.698;19.050;2023-04-24T14:11:13;17.97;62.60
64937;SHT30;51452;47.698;19.050;2023-04-24T14:13:41;17.97;63.11
64937;SHT30;51452;47.698;19.050;2023-04-24T14:16:06;18.03;63.75
64937;SHT30;51452;47.698;19.050;2023-04-24T14:18:32;17.85;64.19
64937;SHT30;51452;47.698;19.050;2023-04-24T14:20:57;17.78;64.79
64937;SHT30;51452;47.698;19.050;2023-04-24T14:23:23;17.82;64.71
64937;SHT30;51452;47.698;19.050;2023-04-24T14:25:49;17.75;63.88
64937;SHT30;51452;47.698;19.050;2023-04-24T14:28:18;17.83;63.93
64937;SHT30;51452;47.698;19.050;2023-04-24T14:30:44;17.83;63.27
64937;SHT30;51452;47.698;19.050;2023-04-24T14:33:09;17.95;62.86
64937;SHT30;51452;47.698;19.050;2023-04-24T14:35:36;17.93;63.34
64937;SHT30;51452;47.698;19.050;2023-04-24T14:38:01;17.83;63.78
64937;SHT30;51452;47.698;19.050;2023-04-24T14:40:27;17.72;63.84
64937;SHT30;51452;47.698;19.050;2023-04-24T14:42:52;17.61;64.31
64937;SHT30;51452;47.698;19.050;2023-04-24T14:45:18;17.49;64.94
64937;SHT30;51452;47.698;19.050;2023-04-24T14:47:44;17.51;66.49
64937;SHT30;51452;47.698;19.050;2023-04-24T14:50:10;17.51;66.18
64937;SHT30;51452;47.698;19.050;2023-04-24T14:52:38;17.37;67.53
64937;SHT30;51452;47.698;19.050;2023-04-24T14:55:04;17.21;66.95
64937;SHT30;51452;47.698;19.050;2023-04-24T14:57:32;17.25;67.47
64937;SHT30;51452;47.698;19.050;2023-04-24T14:59:57;17.20;67.82
64937;SHT30;51452;47.698;19.050;2023-04-24T15:02:23;17.25;67.26
64937;SHT30;51452;47.698;19.050;2023-04-24T15:04:48;17.21;68.04
64937;SHT30;51452;47.698;19.050;2023-04-24T15:07:13;17.20;67.34
64937;SHT30;51452;47.698;19.050;2023-04-24T15:09:39;17.15;68.24
64937;SHT30;51452;47.698;19.050;2023-04-24T15:12:04;17.17;68.72
64937;SHT30;51452;47.698;19.050;2023-04-24T15:14:30;17.08;66.97
64937;SHT30;51452;47.698;19.050;2023-04-24T15:16:55;16.91;68.75
64937;SHT30;51452;47.698;19.050;2023-04-24T15:19:21;16.80;67.15
64937;SHT30;51452;47.698;19.050;2023-04-24T15:21:46;16.80;67.67